トロムソ の空港の天気 - METARとTAF

トロムソ空港 ( ENTC / TOS ) - ノルウェー トロムス県トロムソ
飛行場実況気象(Metar)
観測時間08/25 20:50 CEST (08/25 18:50 UTC)
風向・風速静穏 0m/s
視程8000m
天気現象霧雨
全天の4割程度の雲 雲底高度 120m
全天の8割程度の雲 雲底高度 1740m
気温10℃
湿度94%
気圧1009hPa
METARENTC 251850Z 00000KT 8000 DZ SCT004 BKN057 10/09 Q1009 TEMPO 4000 RADZ BKN005 RMK WIND 2600FT 19008KT
過去の天気等 Google飛行場航空写真 Wunderground天気予報

過去48時間のMETAR

飛行場予報(TAF)
発表時間: -
25日20時 CEST ~ 26日5時 CEST に一時的に
天気現象
25日20時 CEST ~ 26日11時 CEST に一時的に
視程4000m
天気現象雨霧雨
全天の8割程度の雲 雲底高度 150m
26日2時 CEST ~ 26日20時 CEST に一時的に
風向・風速南西 5m/s
TAF ENTC 2518/2618 VRB05KT 9999 FEW005 BKN025
TEMPO 2518/2603 RA
TEMPO 2518/2609 4000 RADZ BKN005
TEMPO 2600/2618 22010KT